Time;durP1;ratioP1;P1;durP2;ratioP2;P2;SDS_P1;SDS_P2;PMS_P1;PMS_P2;Temp;Humidity;BMP_temperature;BMP_pressure;BME280_temperature;BME280_humidity;BME280_pressure;Samples;Min_cycle;Max_cycle;Signal;HPM_P1;HPM_P2
2021/10/23 00:02:21;;;;;;;6.65;3.85;;;8.20;18.60;;;;;;5036646;28;20018;-81
2021/10/23 00:04:46;;;;;;;9.10;3.75;;;8.20;20.00;;;;;;5036822;28;20032;-82
2021/10/23 00:07:12;;;;;;;6.95;4.15;;;8.20;19.90;;;;;;5036585;28;20047;-81
2021/10/23 00:09:38;;;;;;;7.85;4.03;;;8.20;26.40;;;;;;5019514;28;20021;-81
2021/10/23 00:12:04;;;;;;;7.90;3.90;;;8.20;18.70;;;;;;5032486;28;20097;-81
2021/10/23 00:14:30;;;;;;;9.60;4.25;;;8.20;19.50;;;;;;5042722;28;20028;-81
2021/10/23 00:16:55;;;;;;;7.38;4.57;;;8.20;17.80;;;;;;5037633;28;20029;-81
2021/10/23 00:19:21;;;;;;;8.77;4.15;;;8.00;21.10;;;;;;5036583;28;20033;-81
2021/10/23 00:21:47;;;;;;;6.40;3.70;;;8.00;21.00;;;;;;5036583;28;20065;-82
2021/10/23 00:24:13;;;;;;;7.68;4.07;;;8.00;20.10;;;;;;5032786;28;20036;-81
2021/10/23 00:26:38;;;;;;;8.07;3.90;;;8.00;19.50;;;;;;5035040;28;20022;-81
2021/10/23 00:29:04;;;;;;;9.80;4.20;;;8.10;20.40;;;;;;5036808;28;20438;-81
2021/10/23 00:31:29;;;;;;;8.10;3.33;;;8.10;20.30;;;;;;5036593;28;20037;-81
2021/10/23 00:33:55;;;;;;;6.40;3.75;;;8.10;21.30;;;;;;5039229;28;20410;-81
2021/10/23 00:36:21;;;;;;;7.25;4.05;;;8.00;19.60;;;;;;5038848;28;20026;-81
2021/10/23 00:38:47;;;;;;;7.15;3.72;;;8.00;19.80;;;;;;5037669;28;20040;-81
2021/10/23 00:41:12;;;;;;;6.80;3.95;;;7.90;20.10;;;;;;5039893;28;20029;-81
2021/10/23 00:43:40;;;;;;;6.68;3.75;;;7.90;20.70;;;;;;5040367;28;20032;-81
2021/10/23 00:46:06;;;;;;;9.02;3.50;;;8.50;22.00;;;;;;5040587;28;20026;-81
2021/10/23 00:48:32;;;;;;;5.70;3.30;;;7.90;21.30;;;;;;5039880;28;20032;-81
2021/10/23 00:50:58;;;;;;;6.85;3.88;;;7.80;20.50;;;;;;5036900;28;20100;-81
2021/10/23 00:53:24;;;;;;;9.07;4.30;;;7.80;20.40;;;;;;5039558;28;20649;-81
2021/10/23 00:55:50;;;;;;;7.45;4.47;;;7.80;20.90;;;;;;5022880;28;20021;-82
2021/10/23 00:58:16;;;;;;;8.88;4.38;;;7.80;21.10;;;;;;5040166;28;20571;-81
2021/10/23 01:00:42;;;;;;;6.13;3.50;;;7.60;23.40;;;;;;5040709;28;20105;-81
2021/10/23 01:03:08;;;;;;;7.07;3.92;;;7.70;23.40;;;;;;5036292;28;20385;-81
2021/10/23 01:05:34;;;;;;;8.50;4.13;;;7.80;20.30;;;;;;5038939;28;20099;-81
2021/10/23 01:08:00;;;;;;;7.80;3.95;;;8.30;21.40;;;;;;5023578;28;20390;-82
2021/10/23 01:10:27;;;;;;;7.38;4.13;;;7.80;22.50;;;;;;5040155;28;20022;-81
2021/10/23 01:12:52;;;;;;;7.45;4.05;;;7.60;24.30;;;;;;5040274;28;20028;-81
2021/10/23 01:15:24;;;;;;;8.27;4.00;;;7.50;21.70;;;;;;5037686;28;20044;-81
2021/10/23 01:17:51;;;;;;;7.00;3.92;;;7.50;24.60;;;;;;5037248;28;20040;-81
2021/10/23 01:20:19;;;;;;;8.55;3.80;;;7.70;24.60;;;;;;5021581;28;20390;-82
2021/10/23 01:22:44;;;;;;;7.95;3.70;;;7.50;24.70;;;;;;5039677;28;20017;-81
2021/10/23 01:25:11;;;;;;;9.68;3.40;;;7.90;30.90;;;;;;5039821;28;20572;-82
2021/10/23 01:27:38;;;;;;;10.82;3.95;;;7.80;23.30;;;;;;5040010;28;20392;-82
2021/10/23 01:30:05;;;;;;;7.15;3.90;;;7.40;25.00;;;;;;5019695;28;20102;-81
2021/10/23 01:32:31;;;;;;;5.00;3.38;;;7.50;24.20;;;;;;5039602;28;20080;-82
2021/10/23 01:34:56;;;;;;;6.57;3.42;;;7.50;22.00;;;;;;5039433;28;20486;-81
2021/10/23 01:37:33;;;;;;;6.55;3.75;;;7.40;22.60;;;;;;5039799;28;20036;-81
2021/10/23 01:39:59;;;;;;;10.93;3.55;;;7.40;25.20;;;;;;5039521;28;20478;-81
2021/10/23 01:42:25;;;;;;;6.65;3.50;;;7.70;22.70;;;;;;5037860;28;20107;-81
2021/10/23 01:44:50;;;;;;;6.78;3.83;;;7.40;24.00;;;;;;5018416;28;20379;-82
2021/10/23 01:47:16;;;;;;;7.82;3.70;;;7.40;21.70;;;;;;5020921;28;20040;-81
2021/10/23 01:49:43;;;;;;;10.32;4.22;;;7.50;22.30;;;;;;5039220;28;20025;-81
2021/10/23 01:52:09;;;;;;;7.78;3.80;;;7.90;25.50;;;;;;5038693;28;20068;-81
2021/10/23 01:54:35;;;;;;;6.85;3.80;;;7.40;23.20;;;;;;5021675;28;20049;-81
2021/10/23 01:57:00;;;;;;;8.45;3.95;;;7.40;22.60;;;;;;5035436;28;20033;-81
2021/10/23 01:59:26;;;;;;;8.18;4.05;;;7.40;21.30;;;;;;5038317;28;20045;-81
2021/10/23 02:01:51;;;;;;;6.07;3.90;;;7.40;22.90;;;;;;5039293;28;20029;-82
2021/10/23 02:04:17;;;;;;;8.73;3.90;;;7.40;23.10;;;;;;5038906;28;20060;-81
2021/10/23 02:06:43;;;;;;;8.50;3.80;;;7.30;23.10;;;;;;5038938;28;20140;-82
2021/10/23 02:09:08;;;;;;;8.57;4.20;;;7.20;22.20;;;;;;5034670;28;20029;-81
2021/10/23 02:11:34;;;;;;;7.93;3.50;;;7.20;23.10;;;;;;5038560;28;20072;-81
2021/10/23 02:13:59;;;;;;;6.97;3.88;;;7.20;24.30;;;;;;5038968;28;20026;-82
2021/10/23 02:16:25;;;;;;;7.53;3.90;;;7.20;22.50;;;;;;5038761;28;20036;-82
2021/10/23 02:18:51;;;;;;;7.28;3.65;;;7.20;22.40;;;;;;5038944;28;20409;-81
2021/10/23 02:21:16;;;;;;;9.77;4.13;;;7.60;24.50;;;;;;5035711;28;20029;-81
2021/10/23 02:23:42;;;;;;;7.03;4.07;;;7.20;24.50;;;;;;5036189;28;20021;-82
2021/10/23 02:26:08;;;;;;;7.32;3.88;;;7.30;23.60;;;;;;5021306;28;20037;-82
2021/10/23 02:28:34;;;;;;;7.10;3.53;;;7.20;23.70;;;;;;5038703;28;20481;-81
2021/10/23 02:31:00;;;;;;;8.52;4.15;;;7.70;24.50;;;;;;5038541;28;20033;-81
2021/10/23 02:33:25;;;;;;;8.82;3.83;;;7.10;23.80;;;;;;5036827;28;20108;-82
2021/10/23 02:35:51;;;;;;;6.85;3.45;;;7.10;22.80;;;;;;5035504;28;20022;-81
2021/10/23 02:38:17;;;;;;;6.70;3.67;;;6.90;20.70;;;;;;5037720;28;20040;-81
2021/10/23 02:40:42;;;;;;;6.68;4.00;;;6.80;23.80;;;;;;5038521;28;20029;-81
2021/10/23 02:43:09;;;;;;;9.48;4.00;;;6.80;23.40;;;;;;5037998;28;20025;-81
2021/10/23 02:45:35;;;;;;;5.38;3.95;;;6.80;24.90;;;;;;5037910;28;20037;-82
2021/10/23 02:48:01;;;;;;;10.65;3.90;;;6.80;25.20;;;;;;5034126;28;20056;-81
2021/10/23 02:50:27;;;;;;;6.32;3.78;;;6.80;24.30;;;;;;5037570;28;20030;-81
2021/10/23 02:52:54;;;;;;;5.75;3.45;;;6.50;24.70;;;;;;5038472;28;20013;-82
2021/10/23 02:55:20;;;;;;;6.90;3.50;;;6.50;25.30;;;;;;5037916;28;20057;-81
2021/10/23 02:57:45;;;;;;;6.78;3.78;;;6.40;24.70;;;;;;5038180;28;20029;-81
2021/10/23 03:00:12;;;;;;;6.00;3.63;;;6.40;24.30;;;;;;5034921;28;20493;-81
2021/10/23 03:02:37;;;;;;;8.25;3.70;;;6.40;24.90;;;;;;5035963;28;20060;-81
2021/10/23 03:05:04;;;;;;;7.35;3.95;;;6.20;25.50;;;;;;5037400;28;20057;-81
2021/10/23 03:07:31;;;;;;;6.97;3.97;;;6.10;28.50;;;;;;5037502;28;20383;-81
2021/10/23 03:09:57;;;;;;;6.93;3.67;;;6.20;27.00;;;;;;5038088;28;20033;-81
2021/10/23 03:12:23;;;;;;;10.20;4.22;;;6.20;28.30;;;;;;5036359;28;20123;-81
2021/10/23 03:14:48;;;;;;;9.73;4.13;;;6.10;27.20;;;;;;5035305;28;20489;-81
2021/10/23 03:17:14;;;;;;;8.55;4.25;;;6.20;26.50;;;;;;5036820;28;20096;-81
2021/10/23 03:19:39;;;;;;;6.80;4.00;;;6.20;26.90;;;;;;5037324;28;20046;-81
2021/10/23 03:22:05;;;;;;;7.70;4.45;;;6.20;26.90;;;;;;5037350;28;20021;-81
2021/10/23 03:24:31;;;;;;;10.63;4.57;;;6.30;28.00;;;;;;5037138;28;20033;-81
2021/10/23 03:26:56;;;;;;;6.95;4.25;;;6.20;24.70;;;;;;5034458;28;20024;-81
2021/10/23 03:29:22;;;;;;;7.32;4.20;;;6.00;27.10;;;;;;5036770;28;20505;-81
2021/10/23 03:31:48;;;;;;;8.23;4.38;;;6.10;27.10;;;;;;5037477;28;20112;-81
2021/10/23 03:34:14;;;;;;;12.07;5.53;;;6.00;24.70;;;;;;5037638;28;20489;-81
2021/10/23 03:36:39;;;;;;;8.05;4.32;;;6.50;26.80;;;;;;5037212;28;20023;-81
2021/10/23 03:39:05;;;;;;;8.27;4.95;;;6.00;28.60;;;;;;5033015;28;20037;-81
2021/10/23 03:41:31;;;;;;;7.40;4.70;;;6.50;28.50;;;;;;5043391;28;20056;-81
2021/10/23 03:43:57;;;;;;;6.47;4.18;;;5.80;27.40;;;;;;5020349;28;20436;-81
2021/10/23 03:46:22;;;;;;;9.48;4.68;;;5.80;27.70;;;;;;5037245;28;20029;-81
2021/10/23 03:48:48;;;;;;;7.20;4.82;;;5.90;27.90;;;;;;5036647;28;20029;-81
2021/10/23 03:51:13;;;;;;;8.77;4.68;;;5.90;37.70;;;;;;5033882;28;20061;-81
2021/10/23 03:53:39;;;;;;;5.20;4.20;;;5.80;27.90;;;;;;5035293;28;20052;-82
2021/10/23 03:56:05;;;;;;;7.72;4.75;;;5.70;28.20;;;;;;5037167;28;20413;-81
2021/10/23 03:58:30;;;;;;;8.93;4.53;;;5.70;27.00;;;;;;5037106;28;20052;-81
2021/10/23 04:00:56;;;;;;;10.65;5.15;;;5.70;28.50;;;;;;5036839;28;20033;-81
2021/10/23 04:03:22;;;;;;;6.85;4.70;;;5.80;28.20;;;;;;5035178;28;20029;-81
2021/10/23 04:05:47;;;;;;;9.07;5.22;;;5.80;27.20;;;;;;5034094;28;20203;-82
2021/10/23 04:08:13;;;;;;;8.50;4.57;;;5.90;28.90;;;;;;5035427;28;20037;-81
2021/10/23 04:10:39;;;;;;;11.25;5.18;;;5.80;28.30;;;;;;5037033;28;20030;-82
2021/10/23 04:13:04;;;;;;;7.13;4.95;;;5.80;27.10;;;;;;5037123;28;20441;-81
2021/10/23 04:15:30;;;;;;;10.55;5.03;;;5.80;27.70;;;;;;5035388;28;20047;-81
2021/10/23 04:17:56;;;;;;;9.60;5.20;;;5.70;27.60;;;;;;5033702;28;20124;-81
2021/10/23 04:20:22;;;;;;;11.13;4.72;;;5.70;28.90;;;;;;5035307;28;20045;-81
2021/10/23 04:22:47;;;;;;;9.98;5.03;;;5.60;27.60;;;;;;5036529;28;20083;-82
2021/10/23 04:25:13;;;;;;;8.95;4.55;;;6.00;28.50;;;;;;5035526;28;20121;-81
2021/10/23 04:27:38;;;;;;;9.68;4.65;;;5.60;29.10;;;;;;5036405;28;20025;-80
2021/10/23 04:30:05;;;;;;;8.32;4.93;;;5.60;29.60;;;;;;5032157;28;20428;-82
2021/10/23 04:32:30;;;;;;;6.55;4.53;;;5.50;28.20;;;;;;5036002;28;20022;-82
2021/10/23 04:34:56;;;;;;;9.48;5.32;;;5.70;27.50;;;;;;5036366;28;20030;-82
2021/10/23 04:37:22;;;;;;;8.07;4.57;;;6.00;26.30;;;;;;5036943;28;20512;-82
2021/10/23 04:39:48;;;;;;;9.52;4.30;;;5.50;25.40;;;;;;5036479;28;20064;-83
2021/10/23 04:42:14;;;;;;;9.45;4.85;;;5.50;28.60;;;;;;5033246;28;20079;-83
2021/10/23 04:44:39;;;;;;;7.82;4.82;;;5.40;27.90;;;;;;5016238;28;20049;-81
2021/10/23 04:47:05;;;;;;;9.77;5.18;;;5.30;27.90;;;;;;5019062;28;20065;-88
2021/10/23 04:49:31;;;;;;;8.88;4.95;;;5.30;28.60;;;;;;5036435;28;20551;-82
2021/10/23 04:51:56;;;;;;;6.68;4.47;;;5.40;26.80;;;;;;5036372;28;20032;-83
2021/10/23 04:54:22;;;;;;;10.18;4.75;;;5.30;28.60;;;;;;5034995;28;20448;-82
2021/10/23 04:56:48;;;;;;;8.32;4.90;;;5.30;27.90;;;;;;5033834;28;20030;-82
2021/10/23 04:59:13;;;;;;;9.55;4.97;;;5.70;28.90;;;;;;5035309;28;20065;-83
2021/10/23 05:01:39;;;;;;;6.78;5.38;;;5.30;29.10;;;;;;5036326;28;20021;-84
2021/10/23 05:04:04;;;;;;;7.25;5.57;;;5.30;28.60;;;;;;5036988;28;20052;-84
2021/10/23 05:06:30;;;;;;;10.90;5.80;;;5.30;28.80;;;;;;5034957;28;20123;-83
2021/10/23 05:08:56;;;;;;;10.32;6.03;;;5.10;29.00;;;;;;5015345;28;20022;-82
2021/10/23 05:11:22;;;;;;;8.25;5.03;;;5.10;30.00;;;;;;5035609;28;20463;-85
2021/10/23 05:13:48;;;;;;;9.10;5.07;;;5.10;26.60;;;;;;5036331;28;20071;-83
2021/10/23 05:16:13;;;;;;;8.55;5.18;;;4.90;30.20;;;;;;5035844;28;20026;-83
2021/10/23 05:18:39;;;;;;;8.18;4.68;;;4.90;28.30;;;;;;5035879;28;20032;-83
2021/10/23 05:21:05;;;;;;;8.15;4.85;;;4.90;29.00;;;;;;5034308;28;20083;-83
2021/10/23 05:23:31;;;;;;;8.75;4.95;;;5.50;29.80;;;;;;5021375;28;20021;-83
2021/10/23 05:25:57;;;;;;;7.63;5.30;;;4.90;30.30;;;;;;5022570;28;20044;-83
2021/10/23 05:28:22;;;;;;;11.20;5.53;;;5.00;29.90;;;;;;5039503;28;20397;-83
2021/10/23 05:30:48;;;;;;;8.23;4.97;;;5.00;28.70;;;;;;5039957;28;20078;-83
2021/10/23 05:33:13;;;;;;;11.55;5.75;;;5.00;35.20;;;;;;5036304;28;20025;-83
2021/10/23 05:35:39;;;;;;;8.25;5.40;;;5.00;29.80;;;;;;5019895;28;20032;-83
2021/10/23 05:38:05;;;;;;;7.95;5.75;;;5.10;28.90;;;;;;5039749;28;20398;-83
2021/10/23 05:40:31;;;;;;;8.30;5.35;;;5.00;29.10;;;;;;5039347;28;20061;-83
2021/10/23 05:42:57;;;;;;;8.88;5.32;;;4.90;30.70;;;;;;5038940;28;20467;-83
2021/10/23 05:45:23;;;;;;;11.90;5.60;;;4.70;30.80;;;;;;5038313;28;20101;-83
2021/10/23 05:47:49;;;;;;;8.57;5.63;;;4.70;31.00;;;;;;5036886;28;20032;-83
2021/10/23 05:50:14;;;;;;;9.40;6.75;;;4.80;28.70;;;;;;5038738;28;20108;-83
2021/10/23 05:52:41;;;;;;;8.15;5.70;;;4.90;26.80;;;;;;5039273;28;20053;-83
2021/10/23 05:55:07;;;;;;;7.72;4.88;;;4.80;27.20;;;;;;5039228;28;20056;-83
2021/10/23 05:57:32;;;;;;;10.93;5.50;;;4.70;27.70;;;;;;5039130;28;20040;-84
2021/10/23 06:00:04;;;;;;;8.25;5.70;;;4.70;26.50;;;;;;5035624;28;20037;-83
2021/10/23 06:02:31;;;;;;;10.38;5.28;;;4.80;28.30;;;;;;5038882;28;20030;-83
2021/10/23 06:04:59;;;;;;;7.97;4.70;;;4.90;28.10;;;;;;5039235;28;20112;-83
2021/10/23 06:07:27;;;;;;;9.90;5.63;;;4.90;33.00;;;;;;5039110;28;20033;-83
2021/10/23 06:09:53;;;;;;;8.75;5.65;;;4.90;33.00;;;;;;5021179;28;20420;-83
2021/10/23 06:12:20;;;;;;;8.45;5.93;;;5.10;34.00;;;;;;5036244;28;20031;-83
2021/10/23 06:14:46;;;;;;;11.25;5.85;;;5.30;29.60;;;;;;5036558;28;20116;-83
2021/10/23 06:17:12;;;;;;;8.38;5.82;;;5.00;28.30;;;;;;5038858;28;20452;-84
2021/10/23 06:19:38;;;;;;;7.28;5.13;;;5.00;25.70;;;;;;5038706;28;20038;-83
2021/10/23 06:22:05;;;;;;;9.25;5.50;;;4.90;29.30;;;;;;5039073;28;20415;-83
2021/10/23 06:24:31;;;;;;;9.45;5.28;;;5.10;34.10;;;;;;5037889;28;20021;-83
2021/10/23 06:26:57;;;;;;;9.85;5.63;;;4.90;34.20;;;;;;5034878;28;20405;-83
2021/10/23 06:29:23;;;;;;;11.30;5.72;;;4.80;25.80;;;;;;5037947;28;20025;-83
2021/10/23 06:31:48;;;;;;;11.63;5.47;;;5.20;23.50;;;;;;5038902;28;20032;-83
2021/10/23 06:34:14;;;;;;;8.52;5.50;;;5.00;28.70;;;;;;5038589;28;20033;-83
2021/10/23 06:36:39;;;;;;;11.90;5.80;;;4.80;27.70;;;;;;5038341;28;20021;-83
2021/10/23 06:39:05;;;;;;;10.55;5.78;;;5.40;28.10;;;;;;5034113;28;20025;-83
2021/10/23 06:41:31;;;;;;;9.27;5.75;;;4.90;28.60;;;;;;5037376;28;20031;-83
2021/10/23 06:43:57;;;;;;;8.43;5.88;;;5.00;36.40;;;;;;5038551;28;20363;-83
2021/10/23 06:46:24;;;;;;;11.55;5.65;;;5.20;28.10;;;;;;5038507;28;20030;-83
2021/10/23 06:48:50;;;;;;;10.05;6.10;;;5.30;28.90;;;;;;5038626;28;20017;-83
2021/10/23 06:51:17;;;;;;;9.63;5.47;;;5.20;33.90;;;;;;5035190;28;20045;-83
2021/10/23 06:53:42;;;;;;;10.75;6.43;;;5.30;26.40;;;;;;5035611;28;20116;-84
2021/10/23 06:56:08;;;;;;;12.98;6.15;;;5.40;25.80;;;;;;5038042;28;20160;-83
2021/10/23 06:58:34;;;;;;;11.07;6.75;;;5.40;26.60;;;;;;5038529;28;20101;-84
2021/10/23 07:00:59;;;;;;;9.70;6.00;;;5.50;26.20;;;;;;5037970;28;20482;-84
2021/10/23 07:03:25;;;;;;;7.50;5.90;;;5.50;26.70;;;;;;5035690;28;20028;-83
2021/10/23 07:05:52;;;;;;;9.40;5.55;;;5.50;25.60;;;;;;5035341;28;20056;-84
2021/10/23 07:08:18;;;;;;;10.93;5.95;;;5.60;28.10;;;;;;5037067;28;20021;-83
2021/10/23 07:10:44;;;;;;;9.80;5.50;;;5.80;27.20;;;;;;5037853;28;20075;-83
2021/10/23 07:13:09;;;;;;;8.55;5.10;;;5.80;26.80;;;;;;5037828;28;20021;-84
2021/10/23 07:15:36;;;;;;;9.55;5.57;;;5.90;26.60;;;;;;5037079;28;20027;-83
2021/10/23 07:18:02;;;;;;;9.98;6.10;;;6.50;28.50;;;;;;5033849;28;20029;-83
2021/10/23 07:20:28;;;;;;;7.72;5.75;;;6.40;33.70;;;;;;5036875;28;20045;-84
2021/10/23 07:22:53;;;;;;;9.13;5.35;;;5.80;23.50;;;;;;5037597;28;20071;-84
2021/10/23 07:25:19;;;;;;;9.07;6.00;;;6.10;23.90;;;;;;5037450;28;20037;-83
2021/10/23 07:27:44;;;;;;;8.35;6.10;;;6.40;25.50;;;;;;5037443;28;20378;-83
2021/10/23 07:30:10;;;;;;;11.15;6.15;;;6.70;26.60;;;;;;5016116;28;20029;-83
2021/10/23 07:32:38;;;;;;;10.77;6.40;;;6.80;25.10;;;;;;5036291;28;20014;-83
2021/10/23 07:35:05;;;;;;;12.80;6.47;;;6.70;31.10;;;;;;5039464;28;20573;-82
2021/10/23 07:37:32;;;;;;;13.18;6.57;;;6.70;30.80;;;;;;5037320;28;20014;-81
2021/10/23 07:39:59;;;;;;;8.77;6.18;;;6.70;32.10;;;;;;5037401;28;20091;-82
2021/10/23 07:42:25;;;;;;;10.95;6.20;;;7.30;32.10;;;;;;5034626;28;20029;-81
2021/10/23 07:44:50;;;;;;;8.65;5.88;;;7.50;26.90;;;;;;5034786;28;20098;-83
2021/10/23 07:47:18;;;;;;;11.68;5.38;;;10.20;23.20;;;;;;5034588;28;20080;-82
2021/10/23 07:49:44;;;;;;;12.38;6.25;;;10.50;20.60;;;;;;5037359;28;20028;-82
2021/10/23 07:52:10;;;;;;;9.00;5.32;;;14.10;16.50;;;;;;5037538;28;20108;-82
2021/10/23 07:54:35;;;;;;;10.18;5.45;;;17.80;2.30;;;;;;5035905;28;20017;-81
2021/10/23 07:57:02;;;;;;;12.18;6.47;;;19.10;1.00;;;;;;5033304;28;20040;-82
2021/10/23 07:59:28;;;;;;;8.13;4.82;;;20.60;1.00;;;;;;5036391;28;20030;-84
2021/10/23 08:02:00;;;;;;;8.02;5.70;;;22.50;1.00;;;;;;5037435;28;20389;-83
2021/10/23 08:04:28;;;;;;;9.52;5.38;;;22.70;1.00;;;;;;5036989;28;20026;-83
2021/10/23 08:06:59;;;;;;;10.32;6.13;;;23.20;1.00;;;;;;5036555;28;20052;-83
2021/10/23 08:09:32;;;;;;;10.40;6.22;;;23.90;1.00;;;;;;5035066;28;20049;-83
2021/10/23 08:11:59;;;;;;;8.90;5.03;;;23.60;1.00;;;;;;5033662;28;20500;-83
2021/10/23 08:14:25;;;;;;;10.32;6.00;;;23.60;1.00;;;;;;5036201;28;20029;-83
2021/10/23 08:16:51;;;;;;;7.25;5.07;;;23.70;1.00;;;;;;5036821;28;20113;-83
2021/10/23 08:19:17;;;;;;;6.60;5.05;;;24.70;1.00;;;;;;5036912;28;20072;-84
2021/10/23 08:21:43;;;;;;;6.88;4.55;;;24.80;1.00;;;;;;5036564;28;20544;-84
2021/10/23 08:24:10;;;;;;;7.30;4.90;;;25.60;1.00;;;;;;5032058;28;20126;-84
2021/10/23 08:26:36;;;;;;;7.93;5.13;;;23.90;1.00;;;;;;5035643;28;20045;-83
2021/10/23 08:29:02;;;;;;;5.47;4.65;;;24.10;1.00;;;;;;5036658;28;20076;-83
2021/10/23 08:31:29;;;;;;;8.13;5.15;;;24.90;1.00;;;;;;5037209;28;20035;-83
2021/10/23 08:33:55;;;;;;;9.85;5.15;;;25.70;1.00;;;;;;5036055;28;20040;-83
2021/10/23 08:36:21;;;;;;;7.90;5.10;;;24.40;1.00;;;;;;5034852;28;20032;-86
2021/10/23 08:38:47;;;;;;;7.25;5.00;;;24.10;1.00;;;;;;5033437;28;20033;-84
2021/10/23 08:41:13;;;;;;;8.10;5.30;;;25.90;1.00;;;;;;5044157;28;20056;-83
2021/10/23 08:43:42;;;;;;;7.80;5.15;;;25.10;1.00;;;;;;5039408;28;20026;-83
2021/10/23 08:46:13;;;;;;;10.63;5.75;;;26.20;1.00;;;;;;5036111;28;20113;-83
2021/10/23 08:48:39;;;;;;;6.80;4.97;;;27.80;1.00;;;;;;5036559;28;20048;-84
2021/10/23 08:51:05;;;;;;;7.93;5.22;;;28.20;1.00;;;;;;5016078;28;20036;-83
2021/10/23 08:53:32;;;;;;;7.95;4.35;;;27.70;1.00;;;;;;5035766;28;20084;-83
2021/10/23 08:55:57;;;;;;;5.88;4.68;;;27.60;1.00;;;;;;5040097;28;20040;-84
2021/10/23 08:58:23;;;;;;;8.07;5.20;;;28.00;1.00;;;;;;5040444;28;20037;-83
2021/10/23 09:00:49;;;;;;;8.27;4.60;;;27.80;1.00;;;;;;5039856;28;20033;-84
2021/10/23 09:03:16;;;;;;;6.93;4.00;;;28.30;1.00;;;;;;5037161;28;20021;-83
2021/10/23 09:05:42;;;;;;;8.80;4.40;;;29.10;1.00;;;;;;5038463;28;20048;-83
2021/10/23 09:08:14;;;;;;;8.40;4.72;;;30.60;1.00;;;;;;5040679;28;20396;-83
2021/10/23 09:10:45;;;;;;;7.63;4.88;;;29.50;1.00;;;;;;5040260;28;20017;-83
2021/10/23 09:13:11;;;;;;;7.20;4.80;;;29.70;1.00;;;;;;5039959;28;20083;-83
2021/10/23 09:15:41;;;;;;;7.72;5.05;;;29.40;1.00;;;;;;5039813;28;20017;-83
2021/10/23 09:18:08;;;;;;;6.80;4.80;;;28.60;1.00;;;;;;5020543;28;20025;-83
2021/10/23 09:20:42;;;;;;;8.80;5.13;;;29.20;1.00;;;;;;5038938;28;20616;-84
2021/10/23 09:23:17;;;;;;;6.88;4.88;;;29.70;1.00;;;;;;5039907;28;20541;-83
2021/10/23 09:25:44;;;;;;;6.38;4.65;;;30.40;1.00;;;;;;5039705;28;20021;-84
2021/10/23 09:28:13;;;;;;;7.00;4.65;;;30.70;1.00;;;;;;5039951;28;20083;-83
2021/10/23 09:30:42;;;;;;;5.82;4.50;;;30.70;1.00;;;;;;5039796;28;20021;-84
2021/10/23 09:33:11;;;;;;;7.05;5.00;;;31.40;1.00;;;;;;5019988;28;20127;-84
2021/10/23 09:35:39;;;;;;;9.63;4.97;;;31.20;1.00;;;;;;5037860;28;20026;-83
2021/10/23 09:38:06;;;;;;;6.70;4.35;;;30.80;1.00;;;;;;5039660;28;20099;-83
2021/10/23 09:40:32;;;;;;;6.78;4.55;;;30.60;1.00;;;;;;5039888;28;20036;-83
2021/10/23 09:43:08;;;;;;;6.90;4.82;;;31.00;1.00;;;;;;5039401;28;20032;-83
2021/10/23 09:45:36;;;;;;;7.53;4.95;;;31.60;1.00;;;;;;5039138;28;20024;-83
2021/10/23 09:48:10;;;;;;;5.25;4.32;;;31.40;1.00;;;;;;5035842;28;20021;-84
2021/10/23 09:50:35;;;;;;;7.53;4.85;;;31.20;1.00;;;;;;5037795;28;20017;-83
2021/10/23 09:53:09;;;;;;;6.35;4.68;;;31.60;1.00;;;;;;5039831;28;20026;-83
2021/10/23 09:55:48;;;;;;;5.97;4.18;;;30.70;1.00;;;;;;5039210;28;20037;-83
2021/10/23 09:58:24;;;;;;;7.65;5.13;;;30.80;1.00;;;;;;5039121;28;20490;-83
2021/10/23 10:00:51;;;;;;;6.30;4.88;;;30.80;1.00;;;;;;5039103;28;20033;-83
2021/10/23 10:03:17;;;;;;;7.97;4.53;;;32.10;1.00;;;;;;5035793;28;20507;-83
2021/10/23 10:05:43;;;;;;;5.78;4.53;;;31.60;1.00;;;;;;5035821;28;20148;-84
2021/10/23 10:08:13;;;;;;;6.05;4.75;;;31.90;1.00;;;;;;5039490;28;20057;-85
2021/10/23 10:10:42;;;;;;;5.25;4.50;;;31.00;1.00;;;;;;5039051;28;20079;-85
2021/10/23 10:13:10;;;;;;;6.45;4.53;;;32.40;1.00;;;;;;5038933;28;20475;-86
2021/10/23 10:15:37;;;;;;;5.13;4.40;;;33.00;1.00;;;;;;5038275;28;20062;-85
2021/10/23 10:18:04;;;;;;;5.60;4.20;;;32.70;1.00;;;;;;5034645;28;20036;-85
2021/10/23 10:20:32;;;;;;;4.45;4.05;;;33.30;1.00;;;;;;5037816;28;20025;-84
2021/10/23 10:22:58;;;;;;;6.82;4.35;;;33.60;1.00;;;;;;5038403;28;20512;-84
2021/10/23 10:25:25;;;;;;;5.45;4.40;;;34.70;1.00;;;;;;5039065;28;20026;-85
2021/10/23 10:27:53;;;;;;;5.40;4.55;;;35.60;1.00;;;;;;5038853;28;20024;-85
2021/10/23 10:30:27;;;;;;;4.45;4.05;;;33.60;1.00;;;;;;5035646;28;20045;-86
2021/10/23 10:33:13;;;;;;;5.35;4.10;;;33.90;1.00;;;;;;5035595;28;20029;-87
2021/10/23 10:36:06;;;;;;;7.72;4.97;;;35.40;1.00;;;;;;5036668;28;20029;-86
2021/10/23 10:44:17;;;;;;;4.82;4.15;;;35.00;1.00;;;;;;5038318;28;20022;-82
2021/10/23 10:46:55;;;;;;;5.60;4.30;;;34.10;1.00;;;;;;5038215;28;20072;-85
2021/10/23 10:49:54;;;;;;;6.20;4.32;;;33.70;1.00;;;;;;5020181;28;20116;-84
2021/10/23 10:52:40;;;;;;;4.55;3.72;;;34.10;1.00;;;;;;5038376;28;20017;-82
2021/10/23 10:55:13;;;;;;;4.85;3.80;;;34.10;1.00;;;;;;5027098;28;20099;-83
2021/10/23 10:58:02;;;;;;;6.93;3.90;;;33.50;1.00;;;;;;5038432;28;20032;-82
2021/10/23 11:00:46;;;;;;;3.97;3.67;;;33.50;1.00;;;;;;5023508;28;20523;-82
2021/10/23 11:04:03;;;;;;;4.55;3.53;;;33.90;1.00;;;;;;5018915;28;20032;-82
2021/10/23 11:06:34;;;;;;;4.55;3.70;;;33.60;1.00;;;;;;5008058;28;20072;-86
2021/10/23 11:09:12;;;;;;;4.72;3.50;;;33.10;1.00;;;;;;5034171;28;20044;-84
2021/10/23 11:11:50;;;;;;;4.82;3.40;;;34.30;1.00;;;;;;5045305;28;20028;-83
2021/10/23 11:14:24;;;;;;;4.35;3.33;;;34.50;1.00;;;;;;5037535;28;20545;-82
2021/10/23 11:17:02;;;;;;;3.78;2.95;;;34.00;1.00;;;;;;5036868;28;20544;-82
2021/10/23 11:19:33;;;;;;;4.40;2.85;;;34.10;1.00;;;;;;5037276;28;20049;-81
2021/10/23 11:22:02;;;;;;;3.92;3.10;;;34.90;1.00;;;;;;5037545;28;20082;-82
2021/10/23 11:24:42;;;;;;;4.65;3.60;;;36.00;1.00;;;;;;5036584;28;20064;-81
2021/10/23 11:27:22;;;;;;;5.65;3.30;;;34.50;1.00;;;;;;5018012;28;20039;-83
2021/10/23 11:29:47;;;;;;;5.38;3.53;;;34.30;1.00;;;;;;5035025;28;20056;-85
2021/10/23 11:32:13;;;;;;;5.35;2.95;;;34.70;1.00;;;;;;5036623;28;20099;-83
2021/10/23 11:34:40;;;;;;;4.15;3.20;;;34.70;1.00;;;;;;5037218;28;20080;-84
2021/10/23 11:37:07;;;;;;;4.53;3.25;;;34.40;1.00;;;;;;5037228;28;20038;-90
2021/10/23 11:39:36;;;;;;;4.82;3.20;;;34.60;1.00;;;;;;5037141;28;20040;-84
2021/10/23 11:42:47;;;;;;;3.60;2.75;;;34.60;1.00;;;;;;5049258;28;20112;-85
2021/10/23 11:45:16;;;;;;;3.47;2.80;;;34.80;1.00;;;;;;4972220;28;20046;-84
2021/10/23 11:47:43;;;;;;;3.95;2.65;;;33.80;1.00;;;;;;4973910;28;20035;-84
2021/10/23 11:50:19;;;;;;;4.25;2.72;;;34.90;1.00;;;;;;4976583;28;20027;-85
2021/10/23 11:52:56;;;;;;;3.03;2.17;;;35.10;1.00;;;;;;4976415;28;20500;-85
2021/10/23 11:55:29;;;;;;;4.25;2.80;;;33.90;1.00;;;;;;4975975;28;20022;-84
2021/10/23 11:57:56;;;;;;;3.30;2.60;;;33.80;1.00;;;;;;4975761;28;20030;-85
2021/10/23 12:00:22;;;;;;;6.35;2.33;;;34.20;1.00;;;;;;4973855;28;20046;-85
2021/10/23 12:02:59;;;;;;;3.70;2.75;;;34.80;1.00;;;;;;4974007;28;20036;-84
2021/10/23 12:05:38;;;;;;;3.13;2.10;;;35.20;1.00;;;;;;4974746;28;20038;-84
2021/10/23 12:08:18;;;;;;;4.93;2.22;;;34.70;1.00;;;;;;4977380;28;20398;-85
2021/10/23 12:11:21;;;;;;;2.92;2.20;;;33.70;1.00;;;;;;4976271;28;20065;-84
2021/10/23 12:13:51;;;;;;;2.90;2.08;;;34.10;1.00;;;;;;4976017;28;20496;-84
2021/10/23 12:16:41;;;;;;;3.75;2.10;;;34.30;1.00;;;;;;4975722;28;20418;-84
2021/10/23 12:19:32;;;;;;;4.60;2.40;;;33.80;1.00;;;;;;5007895;28;20508;-85
2021/10/23 12:22:04;;;;;;;4.63;2.30;;;33.20;1.00;;;;;;5036729;28;20033;-84
2021/10/23 12:24:38;;;;;;;3.42;2.10;;;33.00;1.00;;;;;;5035561;28;20021;-84
2021/10/23 12:27:09;;;;;;;3.63;2.28;;;32.50;1.00;;;;;;5032377;28;20032;-85
2021/10/23 12:29:55;;;;;;;4.13;2.35;;;32.40;1.00;;;;;;5043507;28;20078;-84
2021/10/23 12:32:25;;;;;;;3.58;2.30;;;32.20;1.00;;;;;;5034118;28;20049;-84
2021/10/23 12:34:51;;;;;;;2.92;2.38;;;32.10;1.00;;;;;;5036305;28;20026;-84
2021/10/23 12:37:25;;;;;;;3.35;2.42;;;30.40;1.00;;;;;;5036532;28;20049;-84
2021/10/23 12:40:03;;;;;;;2.47;2.28;;;31.70;1.00;;;;;;5036907;28;20037;-84
2021/10/23 12:42:29;;;;;;;2.60;2.17;;;30.70;1.00;;;;;;5035399;28;20021;-84
2021/10/23 12:44:54;;;;;;;4.22;2.22;;;30.70;1.00;;;;;;5033087;28;20025;-84
2021/10/23 12:47:20;;;;;;;4.20;2.78;;;31.40;1.00;;;;;;5035960;28;20021;-84
2021/10/23 12:49:45;;;;;;;3.22;2.30;;;31.50;1.00;;;;;;5036896;28;20029;-84
2021/10/23 12:52:11;;;;;;;3.70;2.22;;;31.00;1.00;;;;;;5036708;28;20057;-84
2021/10/23 12:54:37;;;;;;;3.10;2.13;;;31.00;1.00;;;;;;5036280;28;20100;-84
2021/10/23 12:57:02;;;;;;;5.47;2.42;;;31.90;1.00;;;;;;5032183;28;20052;-84
2021/10/23 12:59:28;;;;;;;4.55;3.10;;;31.40;1.00;;;;;;5035085;28;20034;-84
2021/10/23 13:01:54;;;;;;;2.88;2.10;;;31.10;1.00;;;;;;5036415;28;20052;-84
2021/10/23 13:04:20;;;;;;;4.25;2.17;;;30.70;1.00;;;;;;5038127;28;20014;-84
2021/10/23 13:06:45;;;;;;;3.63;2.35;;;30.80;1.00;;;;;;5036465;28;20390;-84